Time,TemperatureF,DewpointF,PressureIn,WindDirection,WindDirectionDegrees,WindSpeedMPH,WindSpeedGustMPH,Humidity,HourlyPrecipIn,Conditions,Clouds,dailyrainin,SolarRadiationWatts/m^2,SoftwareType,DateUTC
2013-04-23 00:00:00,56.3,43.0,29.95,ENE,61,0.0,0.0,61,0.00,,,0.00,0,Wunderground v.1.15,2013-04-23 07:00:00,
2013-04-23 00:05:00,56.4,43.1,29.95,ENE,62,0.0,0.0,61,0.00,,,0.00,0,Wunderground v.1.15,2013-04-23 07:05:00,
2013-04-23 00:15:00,56.2,42.9,29.95,ENE,68,2.0,2.0,61,0.00,,,0.00,0,Wunderground v.1.15,2013-04-23 07:15:00,
2013-04-23 00:20:00,56.0,42.7,29.95,East,101,3.0,3.0,61,0.00,,,0.00,0,Wunderground v.1.15,2013-04-23 07:20:00,
2013-04-23 00:25:00,55.8,42.5,29.95,ESE,103,0.0,3.0,61,0.00,,,0.00,0,Wunderground v.1.15,2013-04-23 07:25:00,
2013-04-23 00:34:00,55.7,42.5,29.94,ESE,103,0.0,2.0,61,0.00,,,0.00,0,Wunderground v.1.15,2013-04-23 07:34:00,
2013-04-23 00:40:00,55.7,42.5,29.94,ESE,104,0.0,0.0,61,0.00,,,0.00,0,Wunderground v.1.15,2013-04-23 07:40:00,
2013-04-23 00:45:00,55.8,42.1,29.95,ESE,104,2.0,2.0,60,0.00,,,0.00,0,Wunderground v.1.15,2013-04-23 07:45:00,
2013-04-23 00:50:00,55.8,42.5,29.95,ESE,104,0.0,0.0,61,0.00,,,0.00,0,Wunderground v.1.15,2013-04-23 07:50:00,
2013-04-23 00:55:00,55.8,42.5,29.95,ESE,104,2.0,2.0,61,0.00,,,0.00,0,Wunderground v.1.15,2013-04-23 07:55:00,
2013-04-23 01:05:00,56.1,42.8,29.94,ENE,59,0.0,2.0,61,0.00,,,0.00,0,Wunderground v.1.15,2013-04-23 08:05:00,
2013-04-23 01:15:00,56.1,42.4,29.94,ENE,59,0.0,0.0,60,0.00,,,0.00,0,Wunderground v.1.15,2013-04-23 08:15:00,
2013-04-23 01:25:00,56.2,42.9,29.94,ENE,61,2.0,2.0,61,0.00,,,0.00,0,Wunderground v.1.15,2013-04-23 08:25:00,
2013-04-23 01:30:00,56.2,42.5,29.94,ENE,61,0.0,0.0,60,0.00,,,0.00,0,Wunderground v.1.15,2013-04-23 08:30:00,
2013-04-23 01:40:00,56.3,42.1,29.94,ENE,61,0.0,0.0,59,0.00,,,0.00,0,Wunderground v.1.15,2013-04-23 08:40:00,
2013-04-23 01:50:00,56.4,42.7,29.94,ENE,61,0.0,0.0,60,0.00,,,0.00,0,Wunderground v.1.15,2013-04-23 08:50:00,
2013-04-23 01:55:00,56.4,42.7,29.94,NE,44,0.0,0.0,60,0.00,,,0.00,0,Wunderground v.1.15,2013-04-23 08:55:00,
2013-04-23 02:05:00,56.4,42.2,29.93,NE,50,0.0,1.0,59,0.00,,,0.00,0,Wunderground v.1.15,2013-04-23 09:05:00,
2013-04-23 02:15:00,56.4,42.7,29.93,NE,50,0.0,0.0,60,0.00,,,0.00,0,Wunderground v.1.15,2013-04-23 09:15:00,
2013-04-23 02:20:00,56.3,42.6,29.92,NE,50,0.0,0.0,60,0.00,,,0.00,0,Wunderground v.1.15,2013-04-23 09:20:00,
2013-04-23 02:30:00,56.2,42.5,29.92,NE,50,0.0,0.0,60,0.00,,,0.00,0,Wunderground v.1.15,2013-04-23 09:30:00,
2013-04-23 02:35:00,56.2,42.5,29.92,ENE,63,0.0,0.0,60,0.00,,,0.00,0,Wunderground v.1.15,2013-04-23 09:35:00,
2013-04-23 02:45:00,56.3,42.6,29.92,ENE,63,0.0,0.0,60,0.00,,,0.00,0,Wunderground v.1.15,2013-04-23 09:45:00,
2013-04-23 02:50:00,56.2,42.5,29.92,ENE,63,0.0,0.0,60,0.00,,,0.00,0,Wunderground v.1.15,2013-04-23 09:50:00,
2013-04-23 03:00:00,56.3,42.6,29.92,ENE,63,0.0,0.0,60,0.00,,,0.00,0,Wunderground v.1.15,2013-04-23 10:00:00,
2013-04-23 03:05:00,56.3,42.6,29.92,ENE,63,0.0,0.0,60,0.00,,,0.00,0,Wunderground v.1.15,2013-04-23 10:05:00,
2013-04-23 03:15:00,56.4,42.7,29.92,ENE,63,0.0,0.0,60,0.00,,,0.00,0,Wunderground v.1.15,2013-04-23 10:15:00,
2013-04-23 03:25:00,56.3,42.6,29.92,ENE,60,1.0,1.0,60,0.00,,,0.00,0,Wunderground v.1.15,2013-04-23 10:25:00,
2013-04-23 03:30:00,56.2,42.5,29.92,NE,56,0.0,0.0,60,0.00,,,0.00,0,Wunderground v.1.15,2013-04-23 10:30:00,
2013-04-23 03:40:00,56.2,42.5,29.91,NE,56,0.0,0.0,60,0.00,,,0.00,0,Wunderground v.1.15,2013-04-23 10:40:00,
2013-04-23 03:50:00,56.3,42.6,29.92,NE,39,0.0,0.0,60,0.00,,,0.00,0,Wunderground v.1.15,2013-04-23 10:50:00,
2013-04-23 03:55:00,56.2,42.5,29.91,NE,39,0.0,0.0,60,0.00,,,0.00,0,Wunderground v.1.15,2013-04-23 10:55:00,
2013-04-23 04:00:00,56.2,42.5,29.91,NE,39,0.0,0.0,60,0.00,,,0.00,0,Wunderground v.1.15,2013-04-23 11:00:00,
2013-04-23 04:05:00,56.2,42.5,29.91,NE,39,0.0,0.0,60,0.00,,,0.00,0,Wunderground v.1.15,2013-04-23 11:05:00,
2013-04-23 04:15:00,56.2,42.5,29.91,NE,42,0.0,1.0,60,0.00,,,0.00,0,Wunderground v.1.15,2013-04-23 11:15:00,
2013-04-23 04:20:00,56.2,42.5,29.91,NE,42,0.0,0.0,60,0.00,,,0.00,0,Wunderground v.1.15,2013-04-23 11:20:00,
2013-04-23 04:30:00,56.2,42.1,29.92,NE,42,0.0,0.0,59,0.00,,,0.00,0,Wunderground v.1.15,2013-04-23 11:30:00,
2013-04-23 04:40:00,56.3,42.1,29.92,NE,42,0.0,0.0,59,0.00,,,0.00,0,Wunderground v.1.15,2013-04-23 11:40:00,
2013-04-23 04:45:00,56.2,42.1,29.92,NE,42,0.0,0.0,59,0.00,,,0.00,0,Wunderground v.1.15,2013-04-23 11:45:00,
2013-04-23 04:55:00,56.2,42.1,29.92,NE,42,1.0,1.0,59,0.00,,,0.00,0,Wunderground v.1.15,2013-04-23 11:55:00,
2013-04-23 05:00:00,56.1,42.0,29.92,NE,42,0.0,0.0,59,0.00,,,0.00,0,Wunderground v.1.15,2013-04-23 12:00:00,
2013-04-23 05:05:00,56.1,42.4,29.92,NE,42,1.0,1.0,60,0.00,,,0.00,0,Wunderground v.1.15,2013-04-23 12:05:00,
2013-04-23 05:15:00,56.1,42.4,29.92,NE,42,0.0,0.0,60,0.00,,,0.00,0,Wunderground v.1.15,2013-04-23 12:15:00,
2013-04-23 05:20:00,56.1,42.4,29.92,NE,42,0.0,0.0,60,0.00,,,0.00,0,Wunderground v.1.15,2013-04-23 12:20:00,
2013-04-23 05:25:00,56.1,42.4,29.92,NE,42,0.0,0.0,60,0.00,,,0.00,0,Wunderground v.1.15,2013-04-23 12:25:00,
2013-04-23 05:35:00,56.0,42.3,29.92,NE,48,1.0,1.0,60,0.00,,,0.00,0,Wunderground v.1.15,2013-04-23 12:35:00,
2013-04-23 05:45:00,56.0,41.9,29.92,NE,48,0.0,0.0,59,0.00,,,0.00,0,Wunderground v.1.15,2013-04-23 12:45:00,
2013-04-23 05:50:00,56.0,41.9,29.92,NE,48,0.0,0.0,59,0.00,,,0.00,0,Wunderground v.1.15,2013-04-23 12:50:00,
2013-04-23 06:00:00,55.8,41.7,29.93,NE,51,3.0,3.0,59,0.00,,,0.00,0,Wunderground v.1.15,2013-04-23 13:00:00,
2013-04-23 06:05:00,55.8,41.7,29.93,NE,51,0.0,3.0,59,0.00,,,0.00,0,Wunderground v.1.15,2013-04-23 13:05:00,
2013-04-23 06:15:00,55.8,41.7,29.94,NE,51,0.0,0.0,59,0.00,,,0.00,0,Wunderground v.1.15,2013-04-23 13:15:00,
2013-04-23 06:20:00,55.8,41.7,29.94,NE,51,0.0,0.0,59,0.00,,,0.00,0,Wunderground v.1.15,2013-04-23 13:20:00,
2013-04-23 06:25:00,55.8,41.7,29.94,NE,51,0.0,0.0,59,0.00,,,0.00,0,Wunderground v.1.15,2013-04-23 13:25:00,
2013-04-23 06:35:00,55.8,41.7,29.94,NE,51,0.0,0.0,59,0.00,,,0.00,0,Wunderground v.1.15,2013-04-23 13:35:00,
2013-04-23 06:45:00,55.8,41.7,29.94,NE,51,0.0,0.0,59,0.00,,,0.00,0,Wunderground v.1.15,2013-04-23 13:45:00,
2013-04-23 06:55:00,55.9,41.8,29.94,NE,51,0.0,1.0,59,0.00,,,0.00,0,Wunderground v.1.15,2013-04-23 13:55:00,
2013-04-23 07:00:00,55.9,41.8,29.95,NE,51,0.0,0.0,59,0.00,,,0.00,0,Wunderground v.1.15,2013-04-23 14:00:00,
2013-04-23 07:05:00,56.0,41.9,29.94,NE,51,0.0,0.0,59,0.00,,,0.00,0,Wunderground v.1.15,2013-04-23 14:05:00,
2013-04-23 07:14:00,56.0,41.9,29.95,NE,51,0.0,0.0,59,0.00,,,0.00,0,Wunderground v.1.15,2013-04-23 14:14:00,
2013-04-23 07:20:00,56.1,41.5,29.94,NE,51,0.0,0.0,58,0.00,,,0.00,0,Wunderground v.1.15,2013-04-23 14:20:00,
2013-04-23 07:25:00,56.2,42.1,29.95,NE,51,2.0,2.0,59,0.00,,,0.00,0,Wunderground v.1.15,2013-04-23 14:25:00,
2013-04-23 07:35:00,56.4,42.2,29.95,NE,53,0.0,0.0,59,0.00,,,0.00,0,Wunderground v.1.15,2013-04-23 14:35:00,
2013-04-23 07:45:00,56.5,41.9,29.95,NE,53,0.0,0.0,58,0.00,,,0.00,0,Wunderground v.1.15,2013-04-23 14:45:00,
2013-04-23 07:50:00,56.5,41.9,29.96,NE,53,0.0,0.0,58,0.00,,,0.00,0,Wunderground v.1.15,2013-04-23 14:50:00,
2013-04-23 08:00:00,56.7,42.1,29.96,NE,53,0.0,0.0,58,0.00,,,0.00,0,Wunderground v.1.15,2013-04-23 15:00:00,
2013-04-23 08:05:00,56.8,42.2,29.96,NE,53,1.0,1.0,58,0.00,,,0.00,0,Wunderground v.1.15,2013-04-23 15:05:00,
2013-04-23 08:15:00,57.0,42.4,29.96,NE,53,0.0,0.0,58,0.00,,,0.00,0,Wunderground v.1.15,2013-04-23 15:15:00,
2013-04-23 08:25:00,57.2,42.5,29.96,North,7,2.0,2.0,58,0.00,,,0.00,0,Wunderground v.1.15,2013-04-23 15:25:00,
2013-04-23 08:30:00,57.4,42.7,29.97,North,6,0.0,0.0,58,0.00,,,0.00,0,Wunderground v.1.15,2013-04-23 15:30:00,
2013-04-23 08:39:00,57.5,42.4,29.96,NNE,32,0.0,0.0,57,0.00,,,0.00,0,Wunderground v.1.15,2013-04-23 15:39:00,
2013-04-23 08:45:00,57.6,42.5,29.97,NNE,32,2.0,2.0,57,0.00,,,0.00,0,Wunderground v.1.15,2013-04-23 15:45:00,
2013-04-23 08:50:00,57.5,42.4,29.97,NNE,32,0.0,0.0,57,0.00,,,0.00,0,Wunderground v.1.15,2013-04-23 15:50:00,
2013-04-23 09:00:00,57.7,42.6,29.97,NNE,32,0.0,0.0,57,0.00,,,0.00,0,Wunderground v.1.15,2013-04-23 16:00:00,
2013-04-23 09:05:00,57.8,42.7,29.97,NNE,32,0.0,0.0,57,0.00,,,0.00,0,Wunderground v.1.15,2013-04-23 16:05:00,
2013-04-23 09:14:00,58.2,42.6,29.97,ESE,123,3.0,3.0,56,0.00,,,0.00,0,Wunderground v.1.15,2013-04-23 16:14:00,
2013-04-23 09:19:00,58.1,42.5,29.98,SSE,166,1.0,1.0,56,0.00,,,0.00,0,Wunderground v.1.15,2013-04-23 16:19:00,
2013-04-23 09:25:00,58.1,42.5,29.98,SSE,166,0.0,1.0,56,0.00,,,0.00,0,Wunderground v.1.15,2013-04-23 16:25:00,
2013-04-23 09:30:00,58.3,43.1,29.98,SSE,166,0.0,0.0,57,0.00,,,0.00,0,Wunderground v.1.15,2013-04-23 16:30:00,
2013-04-23 09:40:00,58.7,43.0,29.98,SSE,166,0.0,0.0,56,0.00,,,0.00,0,Wunderground v.1.15,2013-04-23 16:40:00,
2013-04-23 09:45:00,58.7,43.0,29.98,SSE,167,0.0,0.0,56,0.00,,,0.00,0,Wunderground v.1.15,2013-04-23 16:45:00,
2013-04-23 09:54:00,58.9,42.8,29.98,SSE,167,2.0,2.0,55,0.00,,,0.00,0,Wunderground v.1.15,2013-04-23 16:54:00,
2013-04-23 10:00:00,58.8,42.7,29.98,SSE,167,0.0,0.0,55,0.00,,,0.00,0,Wunderground v.1.15,2013-04-23 17:00:00,
2013-04-23 10:05:00,58.7,42.6,29.99,SSE,166,0.0,0.0,55,0.00,,,0.00,0,Wunderground v.1.15,2013-04-23 17:05:00,
2013-04-23 10:15:00,59.0,42.8,29.99,SSE,167,0.0,0.0,55,0.00,,,0.00,0,Wunderground v.1.15,2013-04-23 17:15:00,
2013-04-23 10:20:00,59.1,42.9,29.99,SSW,202,0.0,0.0,55,0.00,,,0.00,0,Wunderground v.1.15,2013-04-23 17:20:00,
2013-04-23 10:30:00,59.7,43.5,29.99,SSW,202,2.0,2.0,55,0.00,,,0.00,0,Wunderground v.1.15,2013-04-23 17:30:00,
2013-04-23 10:35:00,60.1,43.9,29.98,SSW,202,4.0,4.0,55,0.00,,,0.00,0,Wunderground v.1.15,2013-04-23 17:35:00,
2013-04-23 10:45:00,60.3,43.6,29.98,SW,220,0.0,4.0,54,0.00,,,0.00,0,Wunderground v.1.15,2013-04-23 17:45:00,
2013-04-23 10:50:00,60.2,43.5,29.99,South,190,1.0,1.0,54,0.00,,,0.00,0,Wunderground v.1.15,2013-04-23 17:50:00,
2013-04-23 11:00:00,60.2,44.0,29.98,SSW,198,2.0,2.0,55,0.00,,,0.00,0,Wunderground v.1.15,2013-04-23 18:00:00,
2013-04-23 11:05:00,60.1,43.4,29.98,WSW,241,2.0,2.0,54,0.00,,,0.00,0,Wunderground v.1.15,2013-04-23 18:05:00,
2013-04-23 11:15:00,60.4,43.7,29.98,SSW,206,5.0,5.0,54,0.00,,,0.00,0,Wunderground v.1.15,2013-04-23 18:15:00,
2013-04-23 11:20:00,60.5,44.2,29.98,WSW,245,2.0,2.0,55,0.00,,,0.00,0,Wunderground v.1.15,2013-04-23 18:20:00,
2013-04-23 11:29:00,61.0,43.7,29.97,South,172,3.0,3.0,53,0.00,,,0.00,0,Wunderground v.1.15,2013-04-23 18:29:00,
2013-04-23 11:35:00,61.1,44.3,29.97,SSE,162,2.0,3.0,54,0.00,,,0.00,0,Wunderground v.1.15,2013-04-23 18:35:00,
2013-04-23 11:44:00,61.4,44.6,29.97,South,176,2.0,2.0,54,0.00,,,0.00,0,Wunderground v.1.15,2013-04-23 18:44:00,
2013-04-23 11:50:00,62.1,45.2,29.97,South,179,2.0,2.0,54,0.00,,,0.00,0,Wunderground v.1.15,2013-04-23 18:50:00,
2013-04-23 11:55:00,62.4,45.0,29.97,SSW,203,5.0,5.0,53,0.00,,,0.00,0,Wunderground v.1.15,2013-04-23 18:55:00,
2013-04-23 12:00:00,62.1,44.8,29.97,South,178,2.0,2.0,53,0.00,,,0.00,0,Wunderground v.1.15,2013-04-23 19:00:00,
2013-04-23 12:05:00,62.0,44.7,29.97,SW,229,2.0,2.0,53,0.00,,,0.00,0,Wunderground v.1.15,2013-04-23 19:05:00,
2013-04-23 12:15:00,61.6,44.3,29.97,South,172,0.0,5.0,53,0.00,,,0.00,0,Wunderground v.1.15,2013-04-23 19:15:00,
2013-04-23 12:20:00,61.9,45.1,29.96,SSW,194,2.0,2.0,54,0.00,,,0.00,0,Wunderground v.1.15,2013-04-23 19:20:00,
2013-04-23 12:29:00,62.1,44.3,29.96,SSW,195,3.0,3.0,52,0.00,,,0.00,0,Wunderground v.1.15,2013-04-23 19:29:00,
2013-04-23 12:40:00,62.6,44.7,29.96,SSW,198,0.0,0.0,52,0.00,,,0.00,0,Wunderground v.1.15,2013-04-23 19:40:00,
2013-04-23 12:45:00,63.1,45.2,29.95,WSW,239,3.0,3.0,52,0.00,,,0.00,0,Wunderground v.1.15,2013-04-23 19:45:00,
2013-04-23 12:50:00,63.3,45.4,29.95,South,191,7.0,7.0,52,0.00,,,0.00,0,Wunderground v.1.15,2013-04-23 19:50:00,
2013-04-23 13:00:00,63.0,45.1,29.95,SW,233,1.0,1.0,52,0.00,,,0.00,0,Wunderground v.1.15,2013-04-23 20:00:00,
2013-04-23 13:05:00,62.6,44.7,29.95,South,186,0.0,1.0,52,0.00,,,0.00,0,Wunderground v.1.15,2013-04-23 20:05:00,
2013-04-23 13:15:00,63.6,45.1,29.94,SSW,212,5.0,5.0,51,0.00,,,0.00,0,Wunderground v.1.15,2013-04-23 20:15:00,
2013-04-23 13:20:00,63.9,45.4,29.94,SSW,195,1.0,1.0,51,0.00,,,0.00,0,Wunderground v.1.15,2013-04-23 20:20:00,
2013-04-23 13:29:00,64.3,48.3,29.94,SSE,168,2.0,2.0,56,0.00,,,0.00,0,Wunderground v.1.15,2013-04-23 20:29:00,
2013-04-23 13:40:00,64.0,48.5,29.93,South,189,4.0,4.0,57,0.00,,,0.00,0,Wunderground v.1.15,2013-04-23 20:40:00,
2013-04-23 13:45:00,64.1,48.1,29.93,SW,224,3.0,4.0,56,0.00,,,0.00,0,Wunderground v.1.15,2013-04-23 20:45:00,
2013-04-23 13:50:00,64.1,48.5,29.92,South,180,2.0,2.0,57,0.00,,,0.00,0,Wunderground v.1.15,2013-04-23 20:50:00,
2013-04-23 14:00:00,64.4,48.4,29.92,South,181,3.0,3.0,56,0.00,,,0.00,0,Wunderground v.1.15,2013-04-23 21:00:00,
2013-04-23 14:05:00,64.6,48.1,29.92,SW,216,4.0,4.0,55,0.00,,,0.00,0,Wunderground v.1.15,2013-04-23 21:05:00,
2013-04-23 14:14:00,65.1,49.0,29.91,SSW,207,6.0,6.0,56,0.00,,,0.00,0,Wunderground v.1.15,2013-04-23 21:14:00,
2013-04-23 14:20:00,65.3,48.7,29.91,South,185,3.0,3.0,55,0.00,,,0.00,0,Wunderground v.1.15,2013-04-23 21:20:00,
2013-04-23 14:25:00,64.8,48.7,29.91,SSW,204,6.0,6.0,56,0.00,,,0.00,0,Wunderground v.1.15,2013-04-23 21:25:00,
2013-04-23 14:30:00,64.9,48.8,29.91,West,276,0.0,0.0,56,0.00,,,0.00,0,Wunderground v.1.15,2013-04-23 21:30:00,
2013-04-23 14:40:00,64.5,48.9,29.91,SSW,201,7.0,7.0,57,0.00,,,0.00,0,Wunderground v.1.15,2013-04-23 21:40:00,
2013-04-23 14:45:00,64.2,48.6,29.90,SSW,196,7.0,7.0,57,0.00,,,0.00,0,Wunderground v.1.15,2013-04-23 21:45:00,
2013-04-23 14:50:00,63.8,48.7,29.90,SSW,197,5.0,5.0,58,0.00,,,0.00,0,Wunderground v.1.15,2013-04-23 21:50:00,
2013-04-23 15:00:00,63.8,49.2,29.90,SW,230,10.0,10.0,59,0.00,,,0.00,0,Wunderground v.1.15,2013-04-23 22:00:00,
2013-04-23 15:05:00,63.7,48.2,29.89,South,191,5.0,10.0,57,0.00,,,0.00,0,Wunderground v.1.15,2013-04-23 22:05:00,
2013-04-23 15:15:00,63.5,48.9,29.89,SW,236,2.0,3.0,59,0.00,,,0.00,0,Wunderground v.1.15,2013-04-23 22:15:00,
2013-04-23 15:20:00,64.5,49.4,29.89,WNW,288,3.0,3.0,58,0.00,,,0.00,0,Wunderground v.1.15,2013-04-23 22:20:00,
2013-04-23 15:30:00,64.6,48.5,29.89,South,182,7.0,7.0,56,0.00,,,0.00,0,Wunderground v.1.15,2013-04-23 22:30:00,
2013-04-23 15:40:00,65.0,48.9,29.88,SSE,152,3.0,3.0,56,0.00,,,0.00,0,Wunderground v.1.15,2013-04-23 22:40:00,
2013-04-23 15:45:00,65.2,49.1,29.88,SSE,164,2.0,3.0,56,0.00,,,0.00,0,Wunderground v.1.15,2013-04-23 22:45:00,
2013-04-23 15:50:00,66.1,49.5,29.87,West,259,5.0,5.0,55,0.00,,,0.00,0,Wunderground v.1.15,2013-04-23 22:50:00,
2013-04-23 15:55:00,65.8,49.2,29.87,SSW,209,5.0,5.0,55,0.00,,,0.00,0,Wunderground v.1.15,2013-04-23 22:55:00,
2013-04-23 16:05:00,65.3,48.7,29.87,SW,225,5.0,5.0,55,0.00,,,0.00,0,Wunderground v.1.15,2013-04-23 23:05:00,
2013-04-23 16:15:00,65.4,48.8,29.87,WSW,238,4.0,4.0,55,0.00,,,0.00,0,Wunderground v.1.15,2013-04-23 23:15:00,
2013-04-23 16:20:00,65.4,48.8,29.87,SSW,203,6.0,6.0,55,0.00,,,0.00,0,Wunderground v.1.15,2013-04-23 23:20:00,
2013-04-23 16:25:00,65.4,48.8,29.87,SW,227,4.0,6.0,55,0.00,,,0.00,0,Wunderground v.1.15,2013-04-23 23:25:00,
2013-04-23 16:30:00,65.8,49.2,29.87,SW,217,5.0,5.0,55,0.00,,,0.00,0,Wunderground v.1.15,2013-04-23 23:30:00,
2013-04-23 16:40:00,65.3,49.2,29.87,SW,230,5.0,5.0,56,0.00,,,0.00,0,Wunderground v.1.15,2013-04-23 23:40:00,
2013-04-23 16:45:00,64.9,48.8,29.86,South,170,2.0,5.0,56,0.00,,,0.00,0,Wunderground v.1.15,2013-04-23 23:45:00,
2013-04-23 16:55:00,65.0,48.9,29.86,SW,220,2.0,2.0,56,0.00,,,0.00,0,Wunderground v.1.15,2013-04-23 23:55:00,
2013-04-23 17:00:00,65.1,49.5,29.87,WSW,246,4.0,4.0,57,0.00,,,0.00,0,Wunderground v.1.15,2013-04-24 00:00:00,
2013-04-23 17:05:00,64.5,48.9,29.87,WSW,239,4.0,4.0,57,0.00,,,0.00,0,Wunderground v.1.15,2013-04-24 00:05:00,
2013-04-23 17:15:00,64.6,48.5,29.86,SSE,157,4.0,4.0,56,0.00,,,0.00,0,Wunderground v.1.15,2013-04-24 00:15:00,
2013-04-23 17:20:00,63.9,48.8,29.87,South,183,0.0,0.0,58,0.00,,,0.00,0,Wunderground v.1.15,2013-04-24 00:20:00,
2013-04-23 17:30:00,63.6,48.1,29.87,SW,220,2.0,2.0,57,0.00,,,0.00,0,Wunderground v.1.15,2013-04-24 00:30:00,
2013-04-23 17:35:00,63.4,48.4,29.87,SW,223,4.0,4.0,58,0.00,,,0.00,0,Wunderground v.1.15,2013-04-24 00:35:00,
2013-04-23 17:45:00,62.5,48.0,29.87,SW,214,6.0,6.0,59,0.00,,,0.00,0,Wunderground v.1.15,2013-04-24 00:45:00,
2013-04-23 17:50:00,62.3,47.8,29.88,WSW,254,3.0,3.0,59,0.00,,,0.00,0,Wunderground v.1.15,2013-04-24 00:50:00,
2013-04-23 17:55:00,61.9,47.4,29.88,SSW,199,3.0,3.0,59,0.00,,,0.00,0,Wunderground v.1.15,2013-04-24 00:55:00,
2013-04-23 18:00:00,61.3,47.7,29.88,SSW,200,4.0,4.0,61,0.00,,,0.00,0,Wunderground v.1.15,2013-04-24 01:00:00,
2013-04-23 18:05:00,60.9,47.8,29.88,WSW,237,4.0,4.0,62,0.00,,,0.00,0,Wunderground v.1.15,2013-04-24 01:05:00,
2013-04-23 18:14:00,60.6,48.4,29.89,SSW,203,1.0,3.0,64,0.00,,,0.00,0,Wunderground v.1.15,2013-04-24 01:14:00,
2013-04-23 18:20:00,60.2,48.4,29.89,SSW,210,2.0,2.0,65,0.00,,,0.00,0,Wunderground v.1.15,2013-04-24 01:20:00,
2013-04-23 18:25:00,59.9,48.1,29.89,SSW,209,5.0,5.0,65,0.00,,,0.00,0,Wunderground v.1.15,2013-04-24 01:25:00,
2013-04-23 18:30:00,59.6,47.8,29.89,SSW,212,2.0,2.0,65,0.00,,,0.00,0,Wunderground v.1.15,2013-04-24 01:30:00,
2013-04-23 18:40:00,59.6,47.8,29.89,South,184,1.0,1.0,65,0.00,,,0.00,0,Wunderground v.1.15,2013-04-24 01:40:00,
2013-04-23 18:45:00,59.4,47.6,29.89,SSE,165,0.0,1.0,65,0.00,,,0.00,0,Wunderground v.1.15,2013-04-24 01:45:00,
2013-04-23 18:55:00,59.2,47.8,29.89,South,169,0.0,1.0,66,0.00,,,0.00,0,Wunderground v.1.15,2013-04-24 01:55:00,
2013-04-23 19:00:00,59.1,47.7,29.89,SW,214,0.0,0.0,66,0.00,,,0.00,0,Wunderground v.1.15,2013-04-24 02:00:00,
2013-04-23 19:05:00,59.0,48.1,29.89,SSW,199,1.0,1.0,67,0.00,,,0.00,0,Wunderground v.1.15,2013-04-24 02:05:00,
2013-04-23 19:15:00,58.8,47.9,29.90,WSW,237,0.0,0.0,67,0.00,,,0.00,0,Wunderground v.1.15,2013-04-24 02:15:00,
2013-04-23 19:24:00,58.5,48.0,29.89,WSW,237,0.0,0.0,68,0.00,,,0.00,0,Wunderground v.1.15,2013-04-24 02:24:00,
2013-04-23 19:30:00,58.4,47.9,29.89,WSW,237,0.0,0.0,68,0.00,,,0.00,0,Wunderground v.1.15,2013-04-24 02:30:00,
2013-04-23 19:40:00,58.1,48.0,29.90,South,188,1.0,1.0,69,0.00,,,0.00,0,Wunderground v.1.15,2013-04-24 02:40:00,
2013-04-23 19:45:00,57.9,47.8,29.90,South,188,0.0,1.0,69,0.00,,,0.00,0,Wunderground v.1.15,2013-04-24 02:45:00,
2013-04-23 19:54:00,57.7,47.6,29.90,South,188,0.0,2.0,69,0.00,,,0.00,0,Wunderground v.1.15,2013-04-24 02:54:00,
2013-04-23 20:00:00,57.7,46.0,29.91,South,188,0.0,0.0,65,0.00,,,0.00,0,Wunderground v.1.15,2013-04-24 03:00:00,
2013-04-23 20:05:00,57.6,45.9,29.90,South,188,0.0,0.0,65,0.00,,,0.00,0,Wunderground v.1.15,2013-04-24 03:05:00,
2013-04-23 20:15:00,57.8,46.1,29.91,South,188,0.0,0.0,65,0.00,,,0.00,0,Wunderground v.1.15,2013-04-24 03:15:00,
2013-04-23 20:20:00,58.0,45.9,29.91,South,188,0.0,0.0,64,0.00,,,0.00,0,Wunderground v.1.15,2013-04-24 03:20:00,
2013-04-23 20:34:00,58.2,46.5,29.92,South,188,0.0,0.0,65,0.00,,,0.00,0,Wunderground v.1.15,2013-04-24 03:34:00,
2013-04-23 20:39:00,58.1,46.4,29.92,South,188,0.0,0.0,65,0.00,,,0.00,0,Wunderground v.1.15,2013-04-24 03:39:00,
2013-04-23 20:45:00,58.2,46.5,29.92,South,188,0.0,0.0,65,0.00,,,0.00,0,Wunderground v.1.15,2013-04-24 03:45:00,
2013-04-23 20:50:00,58.2,46.5,29.92,South,188,0.0,0.0,65,0.00,,,0.00,0,Wunderground v.1.15,2013-04-24 03:50:00,
2013-04-23 20:55:00,58.3,46.2,29.92,South,188,0.0,0.0,64,0.00,,,0.00,0,Wunderground v.1.15,2013-04-24 03:55:00,
2013-04-23 21:05:00,58.5,46.4,29.93,South,188,0.0,0.0,64,0.00,,,0.00,0,Wunderground v.1.15,2013-04-24 04:05:00,
2013-04-23 21:10:00,58.4,46.3,29.93,South,188,0.0,0.0,64,0.00,,,0.00,0,Wunderground v.1.15,2013-04-24 04:10:00,
2013-04-23 21:15:00,58.4,46.7,29.93,South,188,0.0,0.0,65,0.00,,,0.00,0,Wunderground v.1.15,2013-04-24 04:15:00,
2013-04-23 21:20:00,58.5,46.4,29.94,South,188,0.0,0.0,64,0.00,,,0.00,0,Wunderground v.1.15,2013-04-24 04:20:00,
2013-04-23 21:30:00,58.5,46.8,29.94,South,188,0.0,0.0,65,0.00,,,0.00,0,Wunderground v.1.15,2013-04-24 04:30:00,
2013-04-23 21:39:00,58.6,46.9,29.94,South,188,0.0,0.0,65,0.00,,,0.00,0,Wunderground v.1.15,2013-04-24 04:39:00,
2013-04-23 21:45:00,58.6,46.5,29.94,South,188,0.0,0.0,64,0.00,,,0.00,0,Wunderground v.1.15,2013-04-24 04:45:00,
2013-04-23 21:50:00,58.8,46.6,29.94,South,188,0.0,0.0,64,0.00,,,0.00,0,Wunderground v.1.15,2013-04-24 04:50:00,
2013-04-23 22:00:00,58.7,46.1,29.94,South,188,0.0,0.0,63,0.00,,,0.00,0,Wunderground v.1.15,2013-04-24 05:00:00,
2013-04-23 22:05:00,58.6,46.5,29.94,South,188,0.0,0.0,64,0.00,,,0.00,0,Wunderground v.1.15,2013-04-24 05:05:00,
2013-04-23 22:10:00,58.4,46.3,29.94,South,188,0.0,0.0,64,0.00,,,0.00,0,Wunderground v.1.15,2013-04-24 05:10:00,
2013-04-23 22:15:00,58.2,46.1,29.94,South,188,0.0,0.0,64,0.00,,,0.00,0,Wunderground v.1.15,2013-04-24 05:15:00,
2013-04-23 22:25:00,58.1,46.0,29.95,South,188,0.0,0.0,64,0.00,,,0.00,0,Wunderground v.1.15,2013-04-24 05:25:00,
2013-04-23 22:30:00,58.1,46.0,29.94,South,188,0.0,0.0,64,0.00,,,0.00,0,Wunderground v.1.15,2013-04-24 05:30:00,
2013-04-23 22:40:00,58.2,46.1,29.94,South,188,0.0,0.0,64,0.00,,,0.00,0,Wunderground v.1.15,2013-04-24 05:40:00,
2013-04-23 22:45:00,58.1,46.0,29.95,South,188,0.0,0.0,64,0.00,,,0.00,0,Wunderground v.1.15,2013-04-24 05:45:00,
2013-04-23 22:50:00,58.0,45.9,29.94,South,188,0.0,0.0,64,0.00,,,0.00,0,Wunderground v.1.15,2013-04-24 05:50:00,
2013-04-23 23:00:00,58.2,46.1,29.95,South,188,0.0,0.0,64,0.00,,,0.00,0,Wunderground v.1.15,2013-04-24 06:00:00,
2013-04-23 23:05:00,58.2,46.1,29.95,South,188,0.0,0.0,64,0.00,,,0.00,0,Wunderground v.1.15,2013-04-24 06:05:00,
2013-04-23 23:15:00,58.1,46.0,29.95,South,188,0.0,0.0,64,0.00,,,0.00,0,Wunderground v.1.15,2013-04-24 06:15:00,
2013-04-23 23:20:00,58.0,45.9,29.95,South,188,0.0,0.0,64,0.00,,,0.00,0,Wunderground v.1.15,2013-04-24 06:20:00,
2013-04-23 23:30:00,57.8,45.7,29.95,South,188,0.0,0.0,64,0.00,,,0.00,0,Wunderground v.1.15,2013-04-24 06:30:00,
2013-04-23 23:35:00,57.8,45.7,29.95,South,188,0.0,0.0,64,0.00,,,0.00,0,Wunderground v.1.15,2013-04-24 06:35:00,
2013-04-23 23:45:00,57.9,45.8,29.95,South,188,0.0,0.0,64,0.00,,,0.00,0,Wunderground v.1.15,2013-04-24 06:45:00,
2013-04-23 23:50:00,57.9,46.2,29.95,South,188,0.0,0.0,65,0.00,,,0.00,0,Wunderground v.1.15,2013-04-24 06:50:00,